Time;durP1;ratioP1;P1;durP2;ratioP2;P2;SDS_P1;SDS_P2;PMS_P1;PMS_P2;Temp;Humidity;BMP_temperature;BMP_pressure;BME280_temperature;BME280_humidity;BME280_pressure;Samples;Min_cycle;Max_cycle;Signal;HPM_P1;HPM_P2
2022/10/13 00:00:47;;;;;;;15.85;6.93;;;;;;;;;;6174871;23;20005;-70
2022/10/13 00:03:32;;;;;;;16.48;7.00;;;;;;;;;;6175303;23;20012;-69
2022/10/13 00:06:18;;;;;;;15.00;7.57;;;;;;;;;;6173585;23;20048;-69
2022/10/13 00:09:03;;;;;;;17.83;8.10;;;;;;;;;;6177228;23;20317;-69
2022/10/13 00:11:48;;;;;;;16.35;8.02;;;;;;;;;;6175735;23;20332;-69
2022/10/13 00:14:34;;;;;;;13.95;7.63;;;;;;;;;;6175200;23;20012;-70
2022/10/13 00:17:19;;;;;;;16.55;8.93;;;;;;;;;;6175845;23;20084;-70
2022/10/13 00:20:05;;;;;;;13.70;7.97;;;;;;;;;;6156248;22;20059;-70
2022/10/13 00:22:50;;;;;;;15.05;8.18;;;;;;;;;;6178883;23;20032;-69
2022/10/13 00:25:39;;;;;;;13.85;7.75;;;;;;;;;;6137722;23;20336;-69
2022/10/13 00:28:24;;;;;;;14.32;8.95;;;;;;;;;;6176133;23;20005;-71
2022/10/13 00:31:19;;;;;;;19.00;10.48;;;;;;;;;;6175282;23;20009;-70
2022/10/13 00:34:04;;;;;;;24.00;11.32;;;;;;;;;;6134797;23;20041;-69
2022/10/13 00:36:49;;;;;;;17.88;11.52;;;;;;;;;;6175276;22;20012;-71
2022/10/13 00:39:35;;;;;;;20.27;11.85;;;;;;;;;;6175747;23;19997;-68
2022/10/13 00:42:22;;;;;;;17.63;10.85;;;;;;;;;;6135257;23;20370;-69
2022/10/13 00:45:16;;;;;;;21.80;11.18;;;;;;;;;;6154717;22;20051;-69
2022/10/13 00:48:02;;;;;;;21.42;11.60;;;;;;;;;;6176804;22;20016;-70
2022/10/13 00:50:47;;;;;;;18.95;11.18;;;;;;;;;;6176164;22;20033;-68
2022/10/13 00:53:35;;;;;;;21.70;11.00;;;;;;;;;;6152520;22;20080;-68
2022/10/13 00:56:21;;;;;;;19.83;11.60;;;;;;;;;;6182952;22;20047;-69
2022/10/13 00:59:21;;;;;;;22.88;11.90;;;;;;;;;;6175258;22;20078;-69
2022/10/13 01:02:06;;;;;;;21.10;10.60;;;;;;;;;;6174364;23;20009;-69
2022/10/13 01:04:52;;;;;;;19.63;9.75;;;;;;;;;;6133416;23;20012;-68
2022/10/13 01:07:37;;;;;;;20.98;10.70;;;;;;;;;;6175623;23;20016;-70
2022/10/13 01:10:34;;;;;;;16.55;9.98;;;;;;;;;;6175891;23;20009;-69
2022/10/13 01:13:26;;;;;;;21.30;8.63;;;;;;;;;;6175567;23;20011;-83
2022/10/13 01:16:14;;;;;;;28.60;10.18;;;;;;;;;;6176108;23;20005;-68
2022/10/13 01:19:07;;;;;;;21.00;11.43;;;;;;;;;;6175229;23;20425;-68
2022/10/13 01:22:11;;;;;;;18.48;9.38;;;;;;;;;;6173375;23;20013;-72
2022/10/13 01:25:11;;;;;;;21.77;9.43;;;;;;;;;;6134379;23;20070;-70
2022/10/13 01:28:03;;;;;;;20.42;10.57;;;;;;;;;;6271047;22;20009;-70
2022/10/13 01:30:56;;;;;;;18.83;10.02;;;;;;;;;;6172883;23;20428;-81
2022/10/13 01:33:44;;;;;;;19.52;10.60;;;;;;;;;;6175316;23;20436;-82
2022/10/13 01:36:38;;;;;;;18.52;9.85;;;;;;;;;;6163654;23;20085;-86
2022/10/13 01:39:29;;;;;;;19.35;10.60;;;;;;;;;;6180077;23;20001;-81
2022/10/13 01:42:24;;;;;;;15.18;10.05;;;;;;;;;;6140159;23;20421;-83
2022/10/13 01:45:11;;;;;;;19.48;9.82;;;;;;;;;;6176887;23;20008;-80
2022/10/13 01:47:58;;;;;;;18.92;10.50;;;;;;;;;;6155018;23;20005;-82
2022/10/13 01:50:44;;;;;;;25.02;12.13;;;;;;;;;;6175969;22;20009;-69
2022/10/13 01:53:29;;;;;;;21.33;10.07;;;;;;;;;;6141428;23;20402;-72
2022/10/13 01:56:15;;;;;;;17.02;10.13;;;;;;;;;;6165891;23;20029;-72
2022/10/13 01:59:03;;;;;;;23.98;10.25;;;;;;;;;;6128330;23;20009;-72
2022/10/13 02:01:49;;;;;;;25.05;12.70;;;;;;;;;;6147566;23;20428;-75
2022/10/13 02:04:40;;;;;;;21.13;11.93;;;;;;;;;;6166413;23;20084;-74
2022/10/13 02:07:58;;;;;;;19.08;9.77;;;;;;;;;;6165483;23;20044;-72
2022/10/13 02:10:57;;;;;;;21.77;11.15;;;;;;;;;;6120211;23;20045;-70
2022/10/13 02:13:53;;;;;;;26.83;11.07;;;;;;;;;;6166168;22;20002;-69
2022/10/13 02:16:39;;;;;;;23.63;11.27;;;;;;;;;;6145441;23;20037;-71
2022/10/13 02:19:26;;;;;;;23.20;12.18;;;;;;;;;;6144546;23;20066;-70
2022/10/13 02:22:13;;;;;;;19.80;10.30;;;;;;;;;;6145986;23;20010;-69
2022/10/13 02:24:58;;;;;;;21.48;10.98;;;;;;;;;;6144761;23;20321;-70
2022/10/13 02:27:44;;;;;;;20.17;10.52;;;;;;;;;;6145085;23;20014;-74
2022/10/13 02:30:30;;;;;;;20.23;11.63;;;;;;;;;;6146787;23;20006;-69
2022/10/13 02:33:16;;;;;;;18.20;11.20;;;;;;;;;;6128944;23;20495;-68
2022/10/13 02:36:01;;;;;;;19.88;10.73;;;;;;;;;;6144348;23;20006;-70
2022/10/13 02:38:46;;;;;;;21.38;11.75;;;;;;;;;;6144747;23;20456;-68
2022/10/13 02:41:31;;;;;;;20.00;11.68;;;;;;;;;;6122582;23;20006;-67
2022/10/13 02:44:16;;;;;;;21.88;11.10;;;;;;;;;;6145013;23;20010;-72
2022/10/13 02:47:02;;;;;;;18.35;10.50;;;;;;;;;;6145119;23;20005;-88
2022/10/13 02:49:47;;;;;;;16.55;11.00;;;;;;;;;;6145696;23;20437;-75
2022/10/13 02:52:32;;;;;;;18.73;10.85;;;;;;;;;;6144889;23;20013;-76
2022/10/13 02:55:18;;;;;;;23.33;10.02;;;;;;;;;;6144997;23;20093;-76
2022/10/13 02:58:03;;;;;;;23.65;11.85;;;;;;;;;;6145118;23;20047;-77
2022/10/13 03:00:48;;;;;;;22.92;11.98;;;;;;;;;;6144867;23;20013;-77
2022/10/13 03:03:34;;;;;;;20.48;10.63;;;;;;;;;;6151186;23;20031;-75
2022/10/13 03:06:19;;;;;;;19.73;10.68;;;;;;;;;;6144841;23;20002;-70
2022/10/13 03:09:04;;;;;;;20.70;10.43;;;;;;;;;;6124621;23;20429;-70
2022/10/13 03:11:50;;;;;;;24.33;11.98;;;;;;;;;;6144963;23;20001;-70
2022/10/13 03:14:35;;;;;;;19.80;11.20;;;;;;;;;;6145471;23;20425;-70
2022/10/13 03:17:20;;;;;;;24.25;12.27;;;;;;;;;;6141413;23;20456;-69
2022/10/13 03:20:06;;;;;;;19.45;10.20;;;;;;;;;;6124438;23;20009;-69
2022/10/13 03:22:51;;;;;;;23.05;11.85;;;;;;;;;;6145195;23;20481;-73
2022/10/13 03:25:37;;;;;;;20.17;10.85;;;;;;;;;;6144814;23;20426;-71
2022/10/13 03:28:22;;;;;;;17.63;11.80;;;;;;;;;;6123861;23;20059;-71
2022/10/13 03:31:09;;;;;;;22.73;12.13;;;;;;;;;;6123428;23;20009;-71
2022/10/13 03:33:54;;;;;;;20.20;11.45;;;;;;;;;;6142701;23;20395;-71
2022/10/13 03:36:40;;;;;;;22.65;11.77;;;;;;;;;;6151654;23;20017;-70
2022/10/13 03:39:25;;;;;;;21.92;11.90;;;;;;;;;;6144698;23;20172;-84
2022/10/13 03:42:10;;;;;;;22.58;11.52;;;;;;;;;;6144091;23;20092;-71
2022/10/13 03:44:57;;;;;;;23.02;11.35;;;;;;;;;;6144909;23;20215;-69
2022/10/13 03:47:42;;;;;;;24.85;12.32;;;;;;;;;;6145048;23;20002;-68
2022/10/13 03:50:27;;;;;;;23.17;12.82;;;;;;;;;;6143729;23;20089;-69
2022/10/13 03:53:12;;;;;;;20.10;11.60;;;;;;;;;;6163284;23;20116;-68
2022/10/13 03:55:58;;;;;;;21.73;12.05;;;;;;;;;;6144008;23;20112;-69
2022/10/13 03:58:43;;;;;;;19.98;10.52;;;;;;;;;;6122862;23;20013;-75
2022/10/13 04:01:28;;;;;;;23.38;11.70;;;;;;;;;;6123506;23;20491;-68
2022/10/13 04:04:14;;;;;;;23.90;12.40;;;;;;;;;;6144784;23;20002;-68
2022/10/13 04:06:59;;;;;;;24.88;12.00;;;;;;;;;;6152063;23;20005;-68
2022/10/13 04:09:44;;;;;;;23.95;11.85;;;;;;;;;;6147799;23;20005;-71
2022/10/13 04:12:30;;;;;;;26.13;13.65;;;;;;;;;;6143467;23;20346;-69
2022/10/13 04:15:15;;;;;;;21.60;10.48;;;;;;;;;;6141450;23;20009;-69
2022/10/13 04:18:00;;;;;;;17.75;11.60;;;;;;;;;;6123607;23;20006;-70
2022/10/13 04:20:46;;;;;;;21.27;12.52;;;;;;;;;;6144160;23;20010;-69
2022/10/13 04:23:31;;;;;;;19.98;10.93;;;;;;;;;;6144942;23;20009;-70
2022/10/13 04:26:17;;;;;;;20.10;10.75;;;;;;;;;;6144880;23;20008;-68
2022/10/13 04:29:04;;;;;;;19.80;11.75;;;;;;;;;;6124431;23;20079;-69
2022/10/13 04:31:49;;;;;;;19.33;12.88;;;;;;;;;;6144413;23;20014;-69
2022/10/13 04:34:34;;;;;;;19.30;11.82;;;;;;;;;;6143722;23;20006;-68
2022/10/13 04:37:19;;;;;;;19.50;12.07;;;;;;;;;;6124420;23;20011;-70
2022/10/13 04:40:05;;;;;;;23.15;12.65;;;;;;;;;;6152273;23;20284;-68
2022/10/13 04:42:50;;;;;;;20.90;11.10;;;;;;;;;;6144514;23;20433;-69
2022/10/13 04:45:35;;;;;;;21.13;12.25;;;;;;;;;;6143957;23;20055;-69
2022/10/13 04:48:21;;;;;;;22.17;11.85;;;;;;;;;;6145197;23;20051;-70
2022/10/13 04:51:13;;;;;;;20.38;12.80;;;;;;;;;;6123934;23;20032;-69
2022/10/13 04:53:59;;;;;;;22.23;12.65;;;;;;;;;;6146564;23;20041;-85
2022/10/13 04:56:45;;;;;;;17.65;11.23;;;;;;;;;;6145784;23;20013;-69
2022/10/13 04:59:30;;;;;;;20.65;12.88;;;;;;;;;;6147173;23;20006;-68
2022/10/13 05:02:16;;;;;;;22.13;11.60;;;;;;;;;;6144973;23;20406;-69
2022/10/13 05:05:01;;;;;;;18.75;11.05;;;;;;;;;;6145937;23;20009;-72
2022/10/13 05:07:46;;;;;;;21.63;11.27;;;;;;;;;;6146451;23;20013;-69
2022/10/13 05:10:31;;;;;;;21.85;12.63;;;;;;;;;;6147322;23;20005;-69
2022/10/13 05:13:17;;;;;;;23.10;12.85;;;;;;;;;;6151360;23;20089;-69
2022/10/13 05:16:09;;;;;;;18.75;12.07;;;;;;;;;;6126994;23;20032;-85
2022/10/13 05:18:54;;;;;;;19.35;11.82;;;;;;;;;;6147154;23;20013;-85
2022/10/13 05:21:39;;;;;;;20.45;11.00;;;;;;;;;;6126243;23;20005;-85
2022/10/13 05:24:35;;;;;;;19.85;10.25;;;;;;;;;;6147120;23;20014;-85
2022/10/13 05:27:21;;;;;;;20.38;11.30;;;;;;;;;;6146880;23;20009;-84
2022/10/13 05:30:07;;;;;;;20.92;11.95;;;;;;;;;;6167600;23;20017;-69
2022/10/13 05:32:52;;;;;;;19.70;11.55;;;;;;;;;;6146096;23;20006;-75
2022/10/13 05:35:38;;;;;;;24.20;12.10;;;;;;;;;;6147036;23;20032;-71
2022/10/13 05:38:23;;;;;;;20.38;11.25;;;;;;;;;;6146282;23;20036;-70
2022/10/13 05:41:09;;;;;;;19.38;11.82;;;;;;;;;;6145095;23;20080;-69
2022/10/13 05:44:02;;;;;;;22.08;10.65;;;;;;;;;;6152658;23;20006;-69
2022/10/13 05:46:48;;;;;;;19.98;12.70;;;;;;;;;;6146156;23;20012;-69
2022/10/13 05:49:35;;;;;;;20.95;11.07;;;;;;;;;;6145583;23;20040;-69
2022/10/13 05:52:22;;;;;;;29.20;12.73;;;;;;;;;;6125670;23;20012;-71
2022/10/13 05:55:08;;;;;;;23.95;12.68;;;;;;;;;;6145945;23;20089;-70
2022/10/13 05:57:54;;;;;;;26.55;11.95;;;;;;;;;;6166756;23;20046;-69
2022/10/13 06:00:40;;;;;;;26.48;12.52;;;;;;;;;;6145944;23;20009;-70
2022/10/13 06:03:26;;;;;;;19.88;10.73;;;;;;;;;;6166693;23;20033;-71
2022/10/13 06:06:12;;;;;;;24.50;12.50;;;;;;;;;;6143512;23;20006;-71
2022/10/13 06:08:57;;;;;;;23.58;13.90;;;;;;;;;;6144768;23;20005;-78
2022/10/13 06:12:04;;;;;;;;;;;;;;;;;;;;;
2022/10/13 06:14:56;;;;;;;20.88;12.32;;;;;;;;;;6147507;23;20254;-70
2022/10/13 06:17:41;;;;;;;25.05;13.70;;;;;;;;;;6148509;23;20013;-69
2022/10/13 06:20:26;;;;;;;22.45;12.18;;;;;;;;;;6146292;23;20433;-70
2022/10/13 06:23:11;;;;;;;23.17;13.65;;;;;;;;;;6145236;23;20009;-70
2022/10/13 06:25:57;;;;;;;23.27;12.65;;;;;;;;;;6145198;23;20043;-72
2022/10/13 06:28:42;;;;;;;24.52;14.00;;;;;;;;;;6145619;23;20077;-68
2022/10/13 06:31:27;;;;;;;24.00;12.75;;;;;;;;;;6125117;23;20425;-70
2022/10/13 06:34:12;;;;;;;20.02;11.02;;;;;;;;;;6145043;23;20006;-68
2022/10/13 06:36:58;;;;;;;20.95;11.73;;;;;;;;;;6144397;23;20134;-69
2022/10/13 06:39:43;;;;;;;23.85;12.57;;;;;;;;;;6123245;23;20012;-70
2022/10/13 06:42:30;;;;;;;26.70;12.40;;;;;;;;;;6124854;23;20040;-70
2022/10/13 06:45:16;;;;;;;20.63;12.25;;;;;;;;;;6145448;23;20048;-79
2022/10/13 06:48:02;;;;;;;20.50;12.32;;;;;;;;;;6150721;23;20413;-82
2022/10/13 06:50:47;;;;;;;20.52;12.30;;;;;;;;;;6144967;23;20005;-79
2022/10/13 06:53:32;;;;;;;24.33;12.75;;;;;;;;;;6143761;23;20084;-79
2022/10/13 06:56:18;;;;;;;27.35;12.77;;;;;;;;;;6165872;23;20452;-77
2022/10/13 06:59:03;;;;;;;21.42;11.52;;;;;;;;;;6145223;23;20384;-80
2022/10/13 07:01:49;;;;;;;19.25;11.10;;;;;;;;;;6144419;23;20278;-80
2022/10/13 07:04:34;;;;;;;21.33;10.82;;;;;;;;;;6145280;23;20018;-70
2022/10/13 07:07:19;;;;;;;26.85;12.73;;;;;;;;;;6123719;23;20013;-75
2022/10/13 07:10:05;;;;;;;23.67;12.05;;;;;;;;;;6124267;23;20118;-74
2022/10/13 07:12:50;;;;;;;21.25;11.00;;;;;;;;;;6144582;23;20020;-75
2022/10/13 07:15:39;;;;;;;21.35;10.85;;;;;;;;;;6144243;23;20032;-73
2022/10/13 07:18:24;;;;;;;22.60;11.98;;;;;;;;;;6144858;23;20321;-74
2022/10/13 07:21:09;;;;;;;22.50;11.35;;;;;;;;;;6150179;23;20005;-72
2022/10/13 07:23:55;;;;;;;22.48;11.27;;;;;;;;;;6144853;23;20455;-80
2022/10/13 07:26:40;;;;;;;16.75;9.98;;;;;;;;;;6144626;23;20013;-78
2022/10/13 07:29:25;;;;;;;19.70;10.30;;;;;;;;;;6144492;23;20017;-77
2022/10/13 07:32:10;;;;;;;20.17;10.05;;;;;;;;;;6144392;23;20009;-78
2022/10/13 07:34:56;;;;;;;17.13;10.32;;;;;;;;;;6145208;23;20448;-76
2022/10/13 07:37:41;;;;;;;19.13;9.18;;;;;;;;;;6144442;23;20005;-85
2022/10/13 07:40:26;;;;;;;22.35;10.70;;;;;;;;;;6143858;23;20009;-75
2022/10/13 07:43:12;;;;;;;22.55;11.10;;;;;;;;;;6124591;23;20005;-71
2022/10/13 07:45:58;;;;;;;20.33;10.75;;;;;;;;;;6144429;23;20010;-71
2022/10/13 07:48:43;;;;;;;19.85;10.65;;;;;;;;;;6121944;23;20009;-73
2022/10/13 07:51:28;;;;;;;17.33;9.82;;;;;;;;;;6149584;23;20009;-72
2022/10/13 07:54:14;;;;;;;21.33;10.82;;;;;;;;;;6146615;23;20017;-72
2022/10/13 07:56:59;;;;;;;18.85;9.20;;;;;;;;;;6124679;23;20452;-71
2022/10/13 07:59:44;;;;;;;18.02;9.27;;;;;;;;;;6145618;23;20139;-73
2022/10/13 08:02:29;;;;;;;18.77;9.68;;;;;;;;;;6144123;23;20014;-69
2022/10/13 08:05:15;;;;;;;18.52;10.30;;;;;;;;;;6142683;23;20080;-72
2022/10/13 08:08:00;;;;;;;21.10;9.95;;;;;;;;;;6145321;23;20006;-71
2022/10/13 08:10:45;;;;;;;16.35;9.27;;;;;;;;;;6144792;23;20001;-75
2022/10/13 08:13:32;;;;;;;18.08;9.93;;;;;;;;;;6144466;23;20361;-74
2022/10/13 08:16:17;;;;;;;21.88;10.40;;;;;;;;;;6144857;22;20002;-76
2022/10/13 08:19:02;;;;;;;17.40;9.70;;;;;;;;;;6144259;23;20384;-78
2022/10/13 08:21:48;;;;;;;16.90;9.35;;;;;;;;;;6145325;23;20010;-76
2022/10/13 08:24:34;;;;;;;18.65;8.30;;;;;;;;;;6152280;22;20364;-75
2022/10/13 08:27:20;;;;;;;17.38;8.85;;;;;;;;;;6124517;23;20012;-75
2022/10/13 08:30:05;;;;;;;14.98;7.50;;;;;;;;;;6144358;23;20013;-75
2022/10/13 08:32:51;;;;;;;13.45;7.88;;;;;;;;;;6146927;23;20883;-77
2022/10/13 08:35:36;;;;;;;15.25;7.97;;;;;;;;;;6146401;23;20051;-82
2022/10/13 08:38:21;;;;;;;15.80;7.78;;;;;;;;;;6146750;22;20001;-74
2022/10/13 08:41:18;;;;;;;20.50;7.82;;;;;;;;;;6146661;23;20020;-74
2022/10/13 08:44:09;;;;;;;13.98;7.22;;;;;;;;;;6145894;23;20020;-73
2022/10/13 08:47:07;;;;;;;14.15;7.55;;;;;;;;;;6146560;23;20006;-73
2022/10/13 08:49:55;;;;;;;15.50;7.88;;;;;;;;;;6147882;23;20006;-75
2022/10/13 08:52:55;;;;;;;15.98;7.57;;;;;;;;;;6146850;23;20430;-85
2022/10/13 08:55:47;;;;;;;13.80;8.98;;;;;;;;;;6151740;23;20277;-72
2022/10/13 08:58:33;;;;;;;14.68;7.57;;;;;;;;;;6147200;23;20334;-71
2022/10/13 09:01:20;;;;;;;14.18;8.25;;;;;;;;;;6146479;23;20025;-70
2022/10/13 09:04:24;;;;;;;14.13;7.57;;;;;;;;;;6145033;23;20365;-70
2022/10/13 09:07:09;;;;;;;15.02;7.95;;;;;;;;;;6146260;23;20421;-70
2022/10/13 09:09:55;;;;;;;12.10;6.32;;;;;;;;;;6146498;23;20051;-71
2022/10/13 09:12:40;;;;;;;14.93;7.30;;;;;;;;;;6146093;23;20089;-70
2022/10/13 09:15:25;;;;;;;16.42;6.28;;;;;;;;;;6146165;23;20096;-70
2022/10/13 09:18:11;;;;;;;13.73;7.05;;;;;;;;;;6145757;23;20428;-70
2022/10/13 09:21:15;;;;;;;18.60;7.55;;;;;;;;;;6145487;23;20539;-70
2022/10/13 09:24:04;;;;;;;11.95;6.80;;;;;;;;;;6125095;23;20049;-70
2022/10/13 09:27:00;;;;;;;13.38;6.65;;;;;;;;;;6127246;23;20008;-70
2022/10/13 09:29:45;;;;;;;13.13;6.10;;;;;;;;;;6148887;23;20055;-72
2022/10/13 09:32:34;;;;;;;11.57;5.68;;;;;;;;;;6145288;23;20500;-70
2022/10/13 09:35:20;;;;;;;11.35;6.18;;;;;;;;;;6145353;23;20343;-79
2022/10/13 09:38:18;;;;;;;13.02;5.95;;;;;;;;;;6146854;23;20006;-79
2022/10/13 09:41:09;;;;;;;10.47;5.40;;;;;;;;;;6145139;23;20044;-81
2022/10/13 09:43:55;;;;;;;16.98;6.03;;;;;;;;;;6146229;23;20233;-80
2022/10/13 09:46:43;;;;;;;13.50;6.57;;;;;;;;;;6144838;23;20016;-80
2022/10/13 09:49:33;;;;;;;11.65;5.60;;;;;;;;;;6146507;23;20498;-73
2022/10/13 09:52:20;;;;;;;13.13;6.35;;;;;;;;;;6125461;23;20092;-73
2022/10/13 09:55:24;;;;;;;11.38;5.53;;;;;;;;;;6146359;22;20009;-73
2022/10/13 09:58:14;;;;;;;12.98;6.00;;;;;;;;;;6145613;23;20357;-72
2022/10/13 10:01:00;;;;;;;11.90;5.68;;;;;;;;;;6151521;23;20009;-72
2022/10/13 10:03:45;;;;;;;11.50;4.93;;;;;;;;;;6146245;23;20379;-75
2022/10/13 10:06:30;;;;;;;10.50;5.85;;;;;;;;;;6145607;23;20033;-73
2022/10/13 10:09:21;;;;;;;11.43;5.60;;;;;;;;;;6145944;23;20096;-72
2022/10/13 10:12:10;;;;;;;13.50;5.40;;;;;;;;;;6145766;23;20010;-70
2022/10/13 10:14:55;;;;;;;11.32;5.38;;;;;;;;;;6143397;23;20385;-70
2022/10/13 10:17:49;;;;;;;10.77;5.20;;;;;;;;;;6145023;23;20433;-71
2022/10/13 10:20:37;;;;;;;7.57;4.80;;;;;;;;;;6143771;22;20005;-70
2022/10/13 10:23:38;;;;;;;10.85;5.50;;;;;;;;;;6124809;23;20002;-70
2022/10/13 10:26:34;;;;;;;11.90;5.15;;;;;;;;;;6146182;23;20021;-71
2022/10/13 10:29:22;;;;;;;11.90;5.35;;;;;;;;;;6144192;23;20429;-72
2022/10/13 10:32:07;;;;;;;8.43;4.50;;;;;;;;;;6153075;23;20098;-71
2022/10/13 10:34:58;;;;;;;20.58;11.50;;;;;;;;;;6145320;23;20080;-70
2022/10/13 10:38:02;;;;;;;14.55;6.85;;;;;;;;;;6145295;23;20063;-70
2022/10/13 10:40:50;;;;;;;23.73;10.60;;;;;;;;;;6145508;23;20452;-70
2022/10/13 10:43:48;;;;;;;11.48;6.47;;;;;;;;;;6143455;23;20009;-70
2022/10/13 10:46:35;;;;;;;12.02;5.55;;;;;;;;;;6144957;23;20013;-71
2022/10/13 10:49:23;;;;;;;10.23;6.47;;;;;;;;;;6144558;23;20002;-72
2022/10/13 10:52:13;;;;;;;14.20;5.20;;;;;;;;;;6144452;23;20014;-72
2022/10/13 10:55:09;;;;;;;11.73;4.72;;;;;;;;;;6144942;23;20010;-70
2022/10/13 10:57:59;;;;;;;12.55;5.40;;;;;;;;;;6144011;23;20397;-70
2022/10/13 11:00:58;;;;;;;15.80;5.97;;;;;;;;;;6145404;23;20005;-72
2022/10/13 11:03:57;;;;;;;22.00;6.35;;;;;;;;;;6150726;23;20005;-76
2022/10/13 11:06:42;;;;;;;15.93;6.03;;;;;;;;;;6144795;23;20014;-71
2022/10/13 11:09:39;;;;;;;9.88;4.75;;;;;;;;;;6125137;23;20349;-68
2022/10/13 11:12:43;;;;;;;11.63;5.25;;;;;;;;;;6124110;23;20108;-67
2022/10/13 11:15:40;;;;;;;11.88;5.53;;;;;;;;;;6095055;23;20021;-69
2022/10/13 11:18:44;;;;;;;10.85;5.30;;;;;;;;;;6095516;23;20010;-68
2022/10/13 11:21:48;;;;;;;12.07;5.45;;;;;;;;;;6095334;23;20041;-74
2022/10/13 11:24:33;;;;;;;8.90;5.00;;;;;;;;;;6097439;23;20060;-75
2022/10/13 11:27:23;;;;;;;13.57;4.93;;;;;;;;;;6116070;23;20029;-77
2022/10/13 11:30:27;;;;;;;9.60;5.25;;;;;;;;;;6076775;23;20065;-78
2022/10/13 11:33:31;;;;;;;9.70;4.53;;;;;;;;;;6096169;23;20083;-79
2022/10/13 11:36:27;;;;;;;10.35;4.68;;;;;;;;;;6121086;23;20013;-78
2022/10/13 11:39:12;;;;;;;9.38;4.47;;;;;;;;;;6095682;23;20013;-74
2022/10/13 11:42:04;;;;;;;9.57;4.93;;;;;;;;;;6075132;23;20072;-73
2022/10/13 11:45:00;;;;;;;10.55;5.22;;;;;;;;;;6115614;23;20002;-69
2022/10/13 11:47:45;;;;;;;8.77;5.10;;;;;;;;;;6095873;23;20325;-70
2022/10/13 11:50:41;;;;;;;8.82;4.60;;;;;;;;;;6074461;23;20321;-70
2022/10/13 11:53:30;;;;;;;7.65;4.32;;;;;;;;;;6093951;23;20029;-71
2022/10/13 11:56:20;;;;;;;13.07;4.90;;;;;;;;;;6093754;23;20013;-73
2022/10/13 11:59:17;;;;;;;7.80;4.38;;;;;;;;;;6093836;23;20397;-78
2022/10/13 12:02:11;;;;;;;16.02;5.28;;;;;;;;;;6093428;23;20005;-70
2022/10/13 12:05:00;;;;;;;11.00;4.72;;;;;;;;;;6075483;23;20037;-70
2022/10/13 12:07:45;;;;;;;;;;;;;;;;;;6103151;23;20309;-69
2022/10/13 12:10:30;;;;;;;7.60;4.60;;;;;;;;;;6095966;23;19913;-68
2022/10/13 12:13:24;;;;;;;7.80;4.32;;;;;;;;;;6116832;23;20330;-70
2022/10/13 12:16:12;;;;;;;6.88;3.78;;;;;;;;;;6096645;23;20010;-74
2022/10/13 12:19:16;;;;;;;6.85;3.78;;;;;;;;;;6094000;23;20002;-72
2022/10/13 12:22:01;;;;;;;8.75;4.05;;;;;;;;;;6096090;23;20010;-73
2022/10/13 12:24:57;;;;;;;9.63;3.95;;;;;;;;;;6097057;23;20008;-72
2022/10/13 12:27:46;;;;;;;7.97;4.70;;;;;;;;;;6096249;23;20049;-71
2022/10/13 12:30:36;;;;;;;9.00;4.53;;;;;;;;;;6095996;23;20081;-72
2022/10/13 12:33:25;;;;;;;7.30;3.90;;;;;;;;;;6096307;23;20002;-74
2022/10/13 12:36:17;;;;;;;8.93;3.63;;;;;;;;;;6096730;23;20010;-72
2022/10/13 12:39:07;;;;;;;10.27;4.40;;;;;;;;;;6098970;23;20639;-70
2022/10/13 12:41:54;;;;;;;8.90;3.90;;;;;;;;;;6098484;23;20405;-70
2022/10/13 12:44:39;;;;;;;13.63;4.55;;;;;;;;;;6096799;23;20009;-69
2022/10/13 12:47:48;;;;;;;7.30;3.72;;;;;;;;;;6112953;23;20071;-69
2022/10/13 12:50:34;;;;;;;11.38;3.97;;;;;;;;;;6095872;23;20002;-71
2022/10/13 12:53:26;;;;;;;11.63;5.25;;;;;;;;;;6096202;23;20049;-74
2022/10/13 12:56:21;;;;;;;9.07;3.95;;;;;;;;;;6096410;23;20004;-70
2022/10/13 12:59:13;;;;;;;11.77;4.25;;;;;;;;;;6096021;23;20014;-71
2022/10/13 13:01:39;;;;;;;10.57;3.88;;;;;;;;;;6114794;23;20013;-71
2022/10/13 13:04:22;;;;;;;8.68;4.10;;;;;;;;;;6115484;23;20333;-71
2022/10/13 13:06:55;;;;;;;11.18;3.80;;;;;;;;;;6117588;23;20417;-73
2022/10/13 13:09:26;;;;;;;9.60;4.40;;;;;;;;;;6117116;23;20036;-69
2022/10/13 13:12:09;;;;;;;9.00;4.30;;;;;;;;;;6123373;23;20010;-73
2022/10/13 13:14:55;;;;;;;7.05;4.20;;;;;;;;;;6116205;23;20337;-76
2022/10/13 13:17:41;;;;;;;9.35;4.25;;;;;;;;;;6096403;23;20010;-77
2022/10/13 13:20:28;;;;;;;9.40;4.70;;;;;;;;;;6076052;23;20010;-75
2022/10/13 13:23:17;;;;;;;7.53;3.28;;;;;;;;;;6096722;23;20341;-76
2022/10/13 13:26:09;;;;;;;10.05;3.92;;;;;;;;;;6075877;23;20009;-73
2022/10/13 13:28:55;;;;;;;9.93;4.32;;;;;;;;;;6095855;23;20045;-74
2022/10/13 13:31:40;;;;;;;8.75;3.80;;;;;;;;;;6096910;23;20438;-76
2022/10/13 13:34:25;;;;;;;10.82;3.90;;;;;;;;;;6095647;23;20045;-71
2022/10/13 13:36:50;;;;;;;9.90;4.23;;;;;;;;;;6116465;23;20175;-70
2022/10/13 13:39:17;;;;;;;11.03;4.20;;;;;;;;;;6115452;23;20010;-69
2022/10/13 13:41:42;;;;;;;9.55;4.03;;;;;;;;;;6115004;23;20390;-68
2022/10/13 13:44:07;;;;;;;9.05;4.22;;;;;;;;;;6122824;23;20355;-68
2022/10/13 13:46:33;;;;;;;11.43;4.80;;;;;;;;;;6117681;23;20005;-68
2022/10/13 13:48:59;;;;;;;8.32;4.03;;;;;;;;;;6117492;23;20234;-70
2022/10/13 13:51:24;;;;;;;8.55;4.00;;;;;;;;;;6116207;23;20014;-73
2022/10/13 13:53:49;;;;;;;9.60;3.90;;;;;;;;;;6117368;23;20068;-75
2022/10/13 13:56:16;;;;;;;6.75;3.53;;;;;;;;;;6117136;23;20389;-72
2022/10/13 13:58:42;;;;;;;8.40;3.72;;;;;;;;;;6144861;23;20088;-71
2022/10/13 14:01:07;;;;;;;11.93;4.05;;;;;;;;;;6143460;23;20033;-69
2022/10/13 14:03:33;;;;;;;8.55;4.50;;;;;;;;;;6144436;23;20477;-70
2022/10/13 14:05:58;;;;;;;12.70;4.87;;;;;;;;;;6143691;23;20009;-69
2022/10/13 14:08:23;;;;;;;10.67;4.27;;;;;;;;;;6142159;23;20245;-69
2022/10/13 14:10:48;;;;;;;9.73;3.90;;;;;;;;;;6143058;23;20321;-75
2022/10/13 14:13:14;;;;;;;9.73;4.30;;;;;;;;;;6146360;23;20261;-73
2022/10/13 14:16:00;;;;;;;7.40;4.13;;;;;;;;;;6129159;23;20006;-73
2022/10/13 14:18:45;;;;;;;9.65;4.60;;;;;;;;;;6146546;23;20522;-73
2022/10/13 14:21:31;;;;;;;11.38;4.45;;;;;;;;;;6145307;23;20005;-72
2022/10/13 14:24:16;;;;;;;9.02;4.53;;;;;;;;;;6143953;23;20139;-72
2022/10/13 14:26:41;;;;;;;14.82;4.43;;;;;;;;;;6145392;23;20040;-70
2022/10/13 14:29:07;;;;;;;10.43;4.17;;;;;;;;;;6153972;23;20249;-79
2022/10/13 14:31:32;;;;;;;10.02;4.47;;;;;;;;;;6146594;23;20326;-78
2022/10/13 14:33:57;;;;;;;10.65;4.10;;;;;;;;;;6147303;23;20084;-78
2022/10/13 14:36:23;;;;;;;8.00;3.90;;;;;;;;;;6145632;23;20502;-76
2022/10/13 14:38:50;;;;;;;10.18;4.53;;;;;;;;;;6145359;23;20113;-79
2022/10/13 14:41:34;;;;;;;10.80;4.68;;;;;;;;;;6145123;23;20017;-79
2022/10/13 14:43:59;;;;;;;10.93;4.85;;;;;;;;;;6146074;23;20005;-75
2022/10/13 14:46:24;;;;;;;9.33;4.40;;;;;;;;;;6146015;23;20009;-73
2022/10/13 14:48:50;;;;;;;12.40;5.30;;;;;;;;;;6154517;23;20320;-72
2022/10/13 14:51:15;;;;;;;15.88;4.13;;;;;;;;;;6145131;23;20549;-72
2022/10/13 14:53:42;;;;;;;10.48;4.28;;;;;;;;;;6145128;23;20010;-72
2022/10/13 14:56:13;;;;;;;14.60;4.65;;;;;;;;;;6145700;23;20009;-72
2022/10/13 14:58:38;;;;;;;8.45;4.57;;;;;;;;;;6146145;23;20015;-72
2022/10/13 15:01:04;;;;;;;19.67;4.67;;;;;;;;;;6150986;23;20021;-77
2022/10/13 15:03:29;;;;;;;8.20;4.50;;;;;;;;;;6147481;23;20002;-76
2022/10/13 15:05:54;;;;;;;9.55;4.50;;;;;;;;;;6144421;23;20029;-77
2022/10/13 15:08:22;;;;;;;19.63;6.60;;;;;;;;;;6144601;23;20014;-77
2022/10/13 15:10:48;;;;;;;13.90;5.63;;;;;;;;;;6147500;23;20452;-79
2022/10/13 15:13:13;;;;;;;16.67;5.23;;;;;;;;;;6147558;23;20573;-76
2022/10/13 15:15:44;;;;;;;13.47;4.60;;;;;;;;;;6144821;23;20553;-77
2022/10/13 15:18:10;;;;;;;10.57;4.75;;;;;;;;;;6146142;23;20244;-76
2022/10/13 15:20:35;;;;;;;11.77;5.25;;;;;;;;;;6152450;23;20001;-79
2022/10/13 15:23:00;;;;;;;7.70;4.33;;;;;;;;;;6143375;23;20443;-79
2022/10/13 15:25:25;;;;;;;11.90;5.23;;;;;;;;;;6148020;23;20718;-79
2022/10/13 15:27:51;;;;;;;13.70;4.63;;;;;;;;;;6147354;23;20576;-84
2022/10/13 15:30:16;;;;;;;10.03;5.13;;;;;;;;;;6147446;23;20237;-81
2022/10/13 15:32:41;;;;;;;12.75;4.72;;;;;;;;;;6150481;23;20076;-81
2022/10/13 15:35:06;;;;;;;11.60;4.90;;;;;;;;;;6148939;23;20001;-80
2022/10/13 15:37:32;;;;;;;12.45;5.85;;;;;;;;;;6146421;23;20273;-83
2022/10/13 15:39:57;;;;;;;11.97;5.80;;;;;;;;;;6143659;23;20018;-75
2022/10/13 15:42:22;;;;;;;11.68;5.63;;;;;;;;;;6145871;23;20824;-70
2022/10/13 15:44:47;;;;;;;16.27;7.20;;;;;;;;;;6146473;23;20009;-71
2022/10/13 15:47:12;;;;;;;13.10;6.03;;;;;;;;;;6144209;22;20236;-69
2022/10/13 15:49:38;;;;;;;16.03;5.77;;;;;;;;;;6142126;23;20324;-70
2022/10/13 15:52:03;;;;;;;10.50;6.07;;;;;;;;;;6149028;23;20275;-70
2022/10/13 15:54:28;;;;;;;16.10;6.05;;;;;;;;;;6148058;23;20681;-69
2022/10/13 15:56:53;;;;;;;10.80;5.37;;;;;;;;;;6141207;23;20005;-75
2022/10/13 15:59:19;;;;;;;10.57;5.17;;;;;;;;;;6145695;23;20541;-76
2022/10/13 16:01:44;;;;;;;19.77;4.90;;;;;;;;;;6145938;23;20279;-76
2022/10/13 16:04:09;;;;;;;15.40;6.10;;;;;;;;;;6147716;23;20451;-73
2022/10/13 16:06:36;;;;;;;16.50;5.80;;;;;;;;;;6150231;23;20656;-74
2022/10/13 16:09:01;;;;;;;13.02;5.90;;;;;;;;;;6145386;23;20241;-72